createdAt,value
2022-08-17T00:03:18.397Z,21.2
2022-08-17T00:19:09.284Z,21.2
2022-08-17T00:33:18.760Z,21.2
2022-08-17T00:48:32.152Z,21.2
2022-08-17T01:03:21.016Z,21.2
2022-08-17T01:18:24.509Z,21.2
2022-08-17T01:33:24.097Z,21.2
2022-08-17T01:48:25.166Z,21.2
2022-08-17T02:03:26.697Z,21.2
2022-08-17T02:18:26.768Z,21.1
2022-08-17T02:33:44.924Z,21.1
2022-08-17T02:48:32.909Z,21.1
2022-08-17T03:03:07.245Z,20.9
2022-08-17T03:18:26.505Z,20.9
2022-08-17T03:33:09.041Z,20.9
2022-08-17T03:48:11.424Z,20.9
2022-08-17T04:03:12.253Z,20.9
2022-08-17T04:18:12.972Z,20.9
2022-08-17T04:33:16.060Z,20.9
2022-08-17T04:48:15.648Z,21
2022-08-17T05:03:16.821Z,21
2022-08-17T05:18:17.569Z,21
2022-08-17T05:33:17.480Z,21
2022-08-17T05:48:19.707Z,21
2022-08-17T06:03:19.685Z,21
2022-08-17T06:18:21.826Z,21
2022-08-17T06:33:22.175Z,21
2022-08-17T06:48:23.155Z,21.1
2022-08-17T07:03:25.133Z,21.1
2022-08-17T07:18:26.929Z,21.1
2022-08-17T07:33:26.450Z,21.1
2022-08-17T07:48:28.026Z,21.1
2022-08-17T08:03:29.673Z,21.2
2022-08-17T08:18:58.533Z,21.2
2022-08-17T08:33:30.772Z,21.2
2022-08-17T08:49:06.649Z,21.2
2022-08-17T09:03:05.717Z,21.4
2022-08-17T09:19:06.031Z,21.4
2022-08-17T09:33:07.637Z,21.4
2022-08-17T09:48:10.052Z,21.4
2022-08-17T10:03:10.926Z,21.4
2022-08-17T10:18:11.141Z,21.4
2022-08-17T10:33:12.242Z,21.4
2022-08-17T10:48:14.760Z,21.4
2022-08-17T11:03:14.228Z,21.4
2022-08-17T11:18:15.249Z,21.4
2022-08-17T11:33:23.274Z,21.4
2022-08-17T11:48:32.746Z,21.4
2022-08-17T12:03:18.414Z,21.5
2022-08-17T12:18:19.347Z,21.5
2022-08-17T12:33:29.777Z,21.5
2022-08-17T12:48:21.291Z,21.5
2022-08-17T13:03:22.387Z,21.5
2022-08-17T13:18:24.058Z,21.5
2022-08-17T13:33:47.225Z,21.5
2022-08-17T13:48:24.329Z,21.5
2022-08-17T14:03:26.937Z,21.5
2022-08-17T14:18:58.170Z,21.5
2022-08-17T14:33:28.139Z,21.6
2022-08-17T14:48:29.904Z,21.6
2022-08-17T15:03:05.214Z,21.7
2022-08-17T15:18:05.881Z,21.7
2022-08-17T15:33:06.768Z,21.7
2022-08-17T15:48:07.439Z,21.7
2022-08-17T16:04:27.061Z,21.7
2022-08-17T16:18:09.422Z,21.7
2022-08-17T16:33:13.132Z,21.7
2022-08-17T16:48:10.648Z,21.7
2022-08-17T17:03:21.831Z,21.7
2022-08-17T17:18:12.265Z,21.7
2022-08-17T17:33:15.994Z,21.7
2022-08-17T17:48:16.399Z,21.7
2022-08-17T18:03:17.902Z,21.7
2022-08-17T18:18:18.439Z,21.7
2022-08-17T18:33:24.631Z,21.7
2022-08-17T18:48:20.864Z,21.7
2022-08-17T19:03:19.981Z,21.7
2022-08-17T19:18:21.605Z,21.7
2022-08-17T19:33:22.447Z,21.7
2022-08-17T19:48:23.549Z,21.7
2022-08-17T20:03:24.077Z,21.7
2022-08-17T20:18:25.411Z,21.7
2022-08-17T20:33:26.053Z,21.7
2022-08-17T20:48:44.866Z,21.7
2022-08-17T21:03:07.413Z,21.8
2022-08-17T21:18:05.664Z,21.8
2022-08-17T21:33:05.969Z,21.8
2022-08-17T21:48:07.302Z,21.8
2022-08-17T22:03:07.901Z,21.8
2022-08-17T22:18:09.983Z,21.8
2022-08-17T22:33:10.618Z,21.8
2022-08-17T22:48:11.788Z,21.8
2022-08-17T23:03:12.890Z,21.8
2022-08-17T23:18:13.849Z,21.8
2022-08-17T23:33:14.442Z,21.8
2022-08-17T23:48:37.923Z,21.8
